Time;durP1;ratioP1;P1;durP2;ratioP2;P2;SDS_P1;SDS_P2;PMS_P1;PMS_P2;Temp;Humidity;BMP_temperature;BMP_pressure;BME280_temperature;BME280_humidity;BME280_pressure;Samples;Min_cycle;Max_cycle;Signal;HPM_P1;HPM_P2
2023/03/16 00:04:46;;;;;;;12.25;2.17;;;;;;;;;;10373513;28;20034;-58
2023/03/16 00:09:46;;;;;;;8.15;2.40;;;;;;;;;;10373393;28;20045;-58
2023/03/16 00:14:48;;;;;;;4.55;2.17;;;;;;;;;;10372716;28;20496;-59
2023/03/16 00:19:53;;;;;;;5.55;2.17;;;;;;;;;;10372339;28;20474;-59
2023/03/16 00:24:55;;;;;;;6.22;2.03;;;;;;;;;;10372666;28;20112;-59
2023/03/16 00:29:55;;;;;;;7.32;2.40;;;;;;;;;;10372172;28;20037;-59
2023/03/16 00:34:57;;;;;;;4.57;1.98;;;;;;;;;;10371890;28;20030;-58
2023/03/16 00:39:57;;;;;;;8.07;2.42;;;;;;;;;;10371561;28;20501;-58
2023/03/16 00:45:00;;;;;;;8.98;2.00;;;;;;;;;;10371214;28;20074;-58
2023/03/16 00:50:01;;;;;;;4.40;2.13;;;;;;;;;;10371771;28;20083;-58
2023/03/16 00:55:03;;;;;;;2.92;1.77;;;;;;;;;;10370504;28;20026;-59
2023/03/16 01:00:26;;;;;;;2.83;1.92;;;;;;;;;;10371369;28;20034;-59
2023/03/16 01:05:27;;;;;;;4.78;2.42;;;;;;;;;;10371705;28;20260;-59
2023/03/16 01:10:28;;;;;;;5.40;2.00;;;;;;;;;;10370468;28;20465;-59
2023/03/16 01:15:29;;;;;;;4.68;1.92;;;;;;;;;;10370108;28;20026;-59
2023/03/16 01:20:32;;;;;;;4.50;1.98;;;;;;;;;;10370079;28;20186;-59
2023/03/16 01:25:32;;;;;;;4.50;2.05;;;;;;;;;;10370326;28;20034;-58
2023/03/16 01:30:34;;;;;;;4.88;2.13;;;;;;;;;;10370390;28;20037;-58
2023/03/16 01:35:35;;;;;;;3.95;1.92;;;;;;;;;;10370131;28;20034;-59
2023/03/16 01:40:36;;;;;;;2.92;1.75;;;;;;;;;;10369329;28;20038;-59
2023/03/16 01:46:05;;;;;;;3.22;1.80;;;;;;;;;;10369357;28;20050;-59
2023/03/16 01:51:16;;;;;;;3.75;1.80;;;;;;;;;;10369475;28;20109;-59
2023/03/16 01:56:24;;;;;;;4.18;1.70;;;;;;;;;;10367606;28;20037;-59
2023/03/16 02:01:27;;;;;;;3.72;1.85;;;;;;;;;;10369138;28;20061;-59
2023/03/16 02:06:28;;;;;;;2.70;1.73;;;;;;;;;;10367056;28;20088;-59
2023/03/16 02:11:29;;;;;;;5.63;1.80;;;;;;;;;;10367167;28;20022;-59
2023/03/16 02:16:30;;;;;;;3.08;1.90;;;;;;;;;;10367125;28;20543;-59
2023/03/16 02:22:05;;;;;;;2.15;1.65;;;;;;;;;;10368659;28;20033;-60
2023/03/16 02:27:13;;;;;;;3.08;1.90;;;;;;;;;;10367347;28;20033;-59
2023/03/16 02:32:15;;;;;;;5.63;1.90;;;;;;;;;;10366852;28;20101;-59
2023/03/16 02:37:15;;;;;;;2.15;1.60;;;;;;;;;;10366499;28;20021;-60
2023/03/16 02:42:22;;;;;;;3.58;1.70;;;;;;;;;;10367355;28;20034;-60
2023/03/16 02:47:41;;;;;;;2.30;1.60;;;;;;;;;;10366465;28;20049;-60
2023/03/16 02:52:41;;;;;;;2.92;1.35;;;;;;;;;;10366719;28;20026;-60
2023/03/16 02:57:42;;;;;;;2.50;1.67;;;;;;;;;;10367676;28;20374;-60
2023/03/16 03:02:44;;;;;;;2.85;1.60;;;;;;;;;;10367800;28;20508;-59
2023/03/16 03:07:44;;;;;;;2.42;1.60;;;;;;;;;;10367702;28;20056;-59
2023/03/16 03:12:48;;;;;;;2.13;1.63;;;;;;;;;;10367005;28;20359;-59
2023/03/16 03:17:49;;;;;;;2.03;1.40;;;;;;;;;;10367782;28;20120;-60
2023/03/16 03:22:51;;;;;;;2.10;1.40;;;;;;;;;;10374342;28;20034;-59
2023/03/16 03:27:53;;;;;;;2.42;1.35;;;;;;;;;;10374520;28;20053;-59
2023/03/16 03:32:54;;;;;;;2.75;1.55;;;;;;;;;;10374418;28;20038;-58
2023/03/16 03:37:54;;;;;;;2.33;1.75;;;;;;;;;;10374020;28;20424;-59
2023/03/16 03:42:55;;;;;;;3.40;1.80;;;;;;;;;;10374253;28;20055;-59
2023/03/16 03:47:56;;;;;;;2.15;1.50;;;;;;;;;;10373607;28;20121;-59
2023/03/16 03:52:56;;;;;;;2.92;1.50;;;;;;;;;;10373937;28;20034;-59
2023/03/16 03:57:57;;;;;;;2.60;1.65;;;;;;;;;;10373334;28;20401;-58
2023/03/16 04:02:57;;;;;;;2.40;1.63;;;;;;;;;;10373994;28;20287;-58
2023/03/16 04:07:58;;;;;;;2.90;1.60;;;;;;;;;;10373131;28;20104;-58
2023/03/16 04:12:59;;;;;;;3.03;1.60;;;;;;;;;;10372643;28;20026;-60
2023/03/16 04:18:00;;;;;;;2.63;1.50;;;;;;;;;;10372516;28;20581;-60
2023/03/16 04:23:01;;;;;;;1.63;1.30;;;;;;;;;;10372594;28;20030;-60
2023/03/16 04:28:01;;;;;;;1.42;1.30;;;;;;;;;;10372011;28;20026;-59
2023/03/16 04:33:03;;;;;;;3.05;1.60;;;;;;;;;;10371842;28;20061;-60
2023/03/16 04:38:04;;;;;;;2.45;1.23;;;;;;;;;;10372277;28;20034;-60
2023/03/16 04:43:04;;;;;;;1.83;1.40;;;;;;;;;;10371426;28;20030;-59
2023/03/16 04:48:05;;;;;;;4.10;1.63;;;;;;;;;;10371316;28;20587;-60
2023/03/16 04:53:06;;;;;;;1.83;1.40;;;;;;;;;;10371507;28;20522;-60
2023/03/16 04:58:06;;;;;;;2.17;1.55;;;;;;;;;;10371379;28;20022;-60
2023/03/16 05:03:13;;;;;;;2.03;1.30;;;;;;;;;;10370651;28;20038;-60
2023/03/16 05:08:13;;;;;;;4.18;1.40;;;;;;;;;;10370675;28;20033;-59
2023/03/16 05:13:14;;;;;;;2.30;1.50;;;;;;;;;;10370747;28;20102;-59
2023/03/16 05:18:14;;;;;;;1.65;1.30;;;;;;;;;;10370646;28;20022;-59
2023/03/16 05:23:15;;;;;;;2.58;1.42;;;;;;;;;;10369813;28;20041;-59
2023/03/16 05:28:16;;;;;;;1.40;1.30;;;;;;;;;;10370297;28;20092;-60
2023/03/16 05:33:16;;;;;;;4.68;1.33;;;;;;;;;;10370206;28;20096;-60
2023/03/16 05:38:17;;;;;;;1.35;1.25;;;;;;;;;;10369491;28;20030;-60
2023/03/16 05:43:19;;;;;;;1.67;1.58;;;;;;;;;;10368651;28;20030;-60
2023/03/16 05:48:20;;;;;;;1.60;1.40;;;;;;;;;;10368605;28;20065;-59
2023/03/16 05:53:27;;;;;;;1.35;1.15;;;;;;;;;;10369142;28;20092;-59
2023/03/16 05:58:28;;;;;;;4.00;1.60;;;;;;;;;;10368750;28;20280;-60
2023/03/16 06:03:28;;;;;;;5.57;1.38;;;;;;;;;;10368833;28;20269;-60
2023/03/16 06:08:29;;;;;;;1.98;1.20;;;;;;;;;;10368775;28;20030;-60
2023/03/16 06:13:30;;;;;;;2.20;1.60;;;;;;;;;;10368074;28;20121;-60
2023/03/16 06:18:32;;;;;;;7.00;2.13;;;;;;;;;;10367427;28;20030;-59
2023/03/16 06:23:33;;;;;;;11.75;1.63;;;;;;;;;;10366903;28;20202;-60
2023/03/16 06:28:34;;;;;;;4.68;1.80;;;;;;;;;;10367258;28;20245;-60
2023/03/16 06:33:35;;;;;;;4.88;1.65;;;;;;;;;;10368751;28;20103;-60
2023/03/16 06:38:35;;;;;;;3.13;1.85;;;;;;;;;;10367864;28;20037;-60
2023/03/16 06:43:36;;;;;;;5.43;1.90;;;;;;;;;;10367973;28;20095;-60
2023/03/16 06:48:36;;;;;;;5.85;1.83;;;;;;;;;;10367946;28;20038;-60
2023/03/16 06:53:37;;;;;;;15.10;2.72;;;;;;;;;;10368548;28;20033;-60
2023/03/16 06:58:37;;;;;;;13.05;2.80;;;;;;;;;;10374689;28;20096;-60
2023/03/16 07:03:38;;;;;;;24.02;2.53;;;;;;;;;;10372698;28;20508;-59
2023/03/16 07:08:39;;;;;;;10.68;2.28;;;;;;;;;;10373500;28;20182;-59
2023/03/16 07:13:40;;;;;;;8.32;2.25;;;;;;;;;;10373960;28;20025;-59
2023/03/16 07:18:43;;;;;;;12.45;2.20;;;;;;;;;;10374589;28;20045;-60
2023/03/16 07:23:44;;;;;;;11.23;2.28;;;;;;;;;;10374089;28;20101;-60
2023/03/16 07:28:45;;;;;;;22.92;3.22;;;;;;;;;;10374078;28;20041;-59
2023/03/16 07:33:45;;;;;;;28.00;3.40;;;;;;;;;;10372390;28;20033;-59
2023/03/16 07:38:46;;;;;;;15.55;3.28;;;;;;;;;;10373273;28;20026;-59
2023/03/16 07:43:47;;;;;;;15.77;2.72;;;;;;;;;;10373193;28;20038;-59
2023/03/16 07:48:48;;;;;;;15.52;2.78;;;;;;;;;;10371280;28;20079;-59
2023/03/16 07:53:48;;;;;;;13.98;2.53;;;;;;;;;;10373273;28;20381;-59
2023/03/16 07:58:50;;;;;;;8.18;2.25;;;;;;;;;;10373094;28;20026;-59
2023/03/16 08:03:50;;;;;;;19.25;2.63;;;;;;;;;;10372755;28;20041;-59
2023/03/16 08:08:51;;;;;;;12.40;2.67;;;;;;;;;;10373305;28;20034;-59
2023/03/16 08:13:55;;;;;;;10.32;2.20;;;;;;;;;;10372578;28;20037;-60
2023/03/16 08:18:56;;;;;;;13.43;2.40;;;;;;;;;;10372588;28;20069;-60
2023/03/16 08:23:57;;;;;;;9.23;2.30;;;;;;;;;;10372528;28;20132;-60
2023/03/16 08:29:01;;;;;;;21.25;3.13;;;;;;;;;;10371781;28;20482;-59
2023/03/16 08:34:02;;;;;;;10.38;2.67;;;;;;;;;;10371440;28;20410;-59
2023/03/16 08:39:04;;;;;;;14.07;3.05;;;;;;;;;;10372068;28;20107;-59
2023/03/16 08:44:06;;;;;;;15.35;2.53;;;;;;;;;;10370880;28;20038;-60
2023/03/16 08:49:07;;;;;;;9.05;2.63;;;;;;;;;;10371718;28;20037;-59
2023/03/16 08:54:08;;;;;;;12.00;2.50;;;;;;;;;;10371455;28;20080;-60
2023/03/16 08:59:08;;;;;;;7.18;2.75;;;;;;;;;;10371154;28;20390;-59
2023/03/16 09:04:10;;;;;;;21.73;3.10;;;;;;;;;;10370235;28;20034;-53
2023/03/16 09:09:11;;;;;;;18.55;2.95;;;;;;;;;;10370761;28;20064;-54
2023/03/16 09:14:12;;;;;;;19.13;3.42;;;;;;;;;;10370135;28;20033;-54
2023/03/16 09:19:13;;;;;;;18.58;2.95;;;;;;;;;;10369439;28;20489;-54
2023/03/16 09:24:13;;;;;;;8.52;2.22;;;;;;;;;;10368442;28;20117;-56
2023/03/16 09:29:14;;;;;;;17.00;2.83;;;;;;;;;;10369211;28;20026;-57
2023/03/16 09:34:15;;;;;;;9.13;2.95;;;;;;;;;;10369671;28;20037;-55
2023/03/16 09:39:16;;;;;;;7.80;2.42;;;;;;;;;;10369263;28;20026;-55
2023/03/16 09:44:42;;;;;;;14.30;2.58;;;;;;;;;;10368490;28;20473;-54
2023/03/16 09:49:46;;;;;;;5.03;1.95;;;;;;;;;;10369300;28;20026;-55
2023/03/16 09:55:00;;;;;;;9.93;2.35;;;;;;;;;;10367441;28;20469;-54
2023/03/16 10:00:21;;;;;;;7.65;2.88;;;;;;;;;;10368885;28;20422;-55
2023/03/16 10:05:23;;;;;;;6.90;2.00;;;;;;;;;;10368376;28;20045;-54
2023/03/16 10:10:38;;;;;;;4.32;2.08;;;;;;;;;;10369209;28;20025;-56
2023/03/16 10:15:39;;;;;;;10.13;2.17;;;;;;;;;;10368493;28;20057;-53
2023/03/16 10:20:42;;;;;;;4.75;2.20;;;;;;;;;;10367272;28;20101;-57
2023/03/16 10:25:55;;;;;;;6.32;2.17;;;;;;;;;;10366446;28;20444;-52
2023/03/16 10:30:59;;;;;;;10.43;2.17;;;;;;;;;;10368019;28;20021;-51
2023/03/16 10:36:32;;;;;;;6.75;2.13;;;;;;;;;;10366874;28;20022;-54
2023/03/16 10:41:39;;;;;;;4.88;2.00;;;;;;;;;;10367777;28;20076;-51
2023/03/16 10:46:49;;;;;;;6.47;2.20;;;;;;;;;;10367675;28;20049;-57
2023/03/16 10:51:54;;;;;;;5.55;1.92;;;;;;;;;;10367797;28;20030;-58
2023/03/16 10:56:56;;;;;;;8.52;2.03;;;;;;;;;;10366443;28;20022;-58
2023/03/16 11:01:57;;;;;;;11.73;2.33;;;;;;;;;;10367354;28;20042;-56
2023/03/16 11:06:57;;;;;;;3.80;2.05;;;;;;;;;;10367538;28;20084;-56
2023/03/16 11:12:11;;;;;;;7.95;2.13;;;;;;;;;;10367357;28;20022;-57
2023/03/16 11:17:16;;;;;;;8.40;2.53;;;;;;;;;;10367319;28;20026;-57
2023/03/16 11:22:25;;;;;;;3.28;2.03;;;;;;;;;;10367121;28;20030;-56
2023/03/16 11:27:42;;;;;;;6.95;2.30;;;;;;;;;;10365365;28;20037;-57
2023/03/16 11:32:49;;;;;;;4.28;1.98;;;;;;;;;;10365720;28;20034;-57
2023/03/16 11:38:11;;;;;;;7.90;2.13;;;;;;;;;;10367125;28;20040;-57
2023/03/16 11:43:30;;;;;;;3.47;1.70;;;;;;;;;;10371856;28;20474;-56
2023/03/16 11:48:35;;;;;;;;;;;;;;;;;;10374080;28;20046;-54
2023/03/16 11:53:59;;;;;;;5.22;2.05;;;;;;;;;;10373676;28;19922;-56
2023/03/16 11:59:26;;;;;;;6.93;2.05;;;;;;;;;;10373739;28;20045;-55
2023/03/16 12:04:58;;;;;;;8.95;2.17;;;;;;;;;;10372903;28;20533;-56
2023/03/16 12:10:27;;;;;;;2.20;1.50;;;;;;;;;;10373129;28;20030;-56
2023/03/16 12:15:41;;;;;;;3.88;1.83;;;;;;;;;;10366853;28;20036;-56
2023/03/16 12:21:13;;;;;;;2.97;1.70;;;;;;;;;;10371711;28;20033;-55
2023/03/16 12:26:16;;;;;;;4.25;2.10;;;;;;;;;;10371951;28;20025;-56
2023/03/16 12:31:27;;;;;;;3.83;2.03;;;;;;;;;;10372158;28;20245;-54
2023/03/16 12:37:06;;;;;;;4.40;1.90;;;;;;;;;;10371013;28;20105;-55
2023/03/16 12:42:13;;;;;;;3.25;1.73;;;;;;;;;;10371261;28;20431;-53
2023/03/16 12:47:57;;;;;;;3.60;2.00;;;;;;;;;;10371188;28;20042;-55
2023/03/16 12:52:58;;;;;;;3.25;1.75;;;;;;;;;;10369607;28;20144;-55
2023/03/16 12:58:05;;;;;;;5.28;1.77;;;;;;;;;;10371349;28;20100;-54
2023/03/16 13:03:14;;;;;;;4.13;2.05;;;;;;;;;;10369235;28;20041;-54
2023/03/16 13:08:18;;;;;;;2.45;1.88;;;;;;;;;;10370030;28;20022;-55
2023/03/16 13:13:24;;;;;;;2.67;1.75;;;;;;;;;;10370291;28;20053;-55
2023/03/16 13:18:40;;;;;;;1.88;1.52;;;;;;;;;;10370378;28;20030;-55
2023/03/16 13:23:58;;;;;;;2.00;1.63;;;;;;;;;;10370119;28;20026;-55
2023/03/16 13:28:59;;;;;;;2.40;1.70;;;;;;;;;;10369771;28;20026;-54
2023/03/16 13:34:01;;;;;;;3.35;1.75;;;;;;;;;;10368263;28;20030;-55
2023/03/16 13:39:22;;;;;;;2.03;1.65;;;;;;;;;;10369765;28;20025;-55
2023/03/16 13:44:24;;;;;;;3.63;1.70;;;;;;;;;;10367712;28;20402;-55
2023/03/16 13:49:24;;;;;;;2.00;1.60;;;;;;;;;;10368948;28;20453;-54
2023/03/16 13:54:28;;;;;;;2.47;1.40;;;;;;;;;;10368548;28;20045;-52
2023/03/16 13:59:30;;;;;;;4.50;2.22;;;;;;;;;;10367961;28;20099;-56
2023/03/16 14:04:31;;;;;;;2.10;1.85;;;;;;;;;;10368454;28;20109;-55
2023/03/16 14:09:34;;;;;;;3.72;1.98;;;;;;;;;;10368270;28;20478;-55
2023/03/16 14:14:40;;;;;;;2.92;1.73;;;;;;;;;;10366874;28;20516;-56
2023/03/16 14:19:50;;;;;;;2.92;1.63;;;;;;;;;;10367853;28;20466;-54
2023/03/16 14:24:57;;;;;;;1.88;1.58;;;;;;;;;;10367114;28;20038;-54
2023/03/16 14:30:15;;;;;;;2.72;1.55;;;;;;;;;;10367958;28;20068;-56
2023/03/16 14:35:21;;;;;;;3.23;1.60;;;;;;;;;;10368300;28;20026;-55
2023/03/16 14:40:31;;;;;;;3.17;1.50;;;;;;;;;;10365986;28;20038;-56
2023/03/16 14:45:34;;;;;;;3.90;1.50;;;;;;;;;;10367775;28;20050;-56
2023/03/16 14:50:36;;;;;;;2.28;1.38;;;;;;;;;;10367321;28;20569;-56
2023/03/16 14:55:36;;;;;;;1.83;1.30;;;;;;;;;;10365995;28;20034;-55
2023/03/16 15:00:38;;;;;;;2.08;1.45;;;;;;;;;;10367643;28;20038;-56
2023/03/16 15:05:42;;;;;;;1.88;1.50;;;;;;;;;;10367401;28;20060;-57
2023/03/16 15:10:43;;;;;;;1.48;1.38;;;;;;;;;;10366209;28;20076;-54
2023/03/16 15:15:47;;;;;;;2.63;1.73;;;;;;;;;;10369197;28;20054;-56
2023/03/16 15:20:49;;;;;;;3.35;1.70;;;;;;;;;;10375112;28;20037;-56
2023/03/16 15:25:51;;;;;;;3.40;1.52;;;;;;;;;;10374063;28;20026;-56
2023/03/16 15:30:58;;;;;;;1.75;1.35;;;;;;;;;;10374624;28;20037;-57
2023/03/16 15:36:05;;;;;;;3.08;1.60;;;;;;;;;;10373945;28;20026;-56
2023/03/16 15:41:13;;;;;;;1.88;1.60;;;;;;;;;;10372687;28;20038;-54
2023/03/16 15:46:13;;;;;;;3.60;1.50;;;;;;;;;;10372067;28;20048;-55
2023/03/16 15:51:26;;;;;;;1.73;1.38;;;;;;;;;;10374045;28;20108;-55
2023/03/16 15:56:34;;;;;;;4.43;1.70;;;;;;;;;;10372058;28;20034;-54
2023/03/16 16:01:44;;;;;;;2.00;1.73;;;;;;;;;;10371819;28;20030;-56
2023/03/16 16:06:46;;;;;;;2.75;1.60;;;;;;;;;;10373035;28;20088;-55
2023/03/16 16:11:49;;;;;;;4.45;1.67;;;;;;;;;;10373129;28;20063;-52
2023/03/16 16:16:50;;;;;;;1.67;1.45;;;;;;;;;;10372863;28;20335;-56
2023/03/16 16:21:51;;;;;;;3.35;1.70;;;;;;;;;;10372585;28;20080;-57
2023/03/16 16:26:52;;;;;;;2.53;1.55;;;;;;;;;;10371574;28;20054;-51
2023/03/16 16:31:53;;;;;;;1.70;1.50;;;;;;;;;;10372233;28;20068;-56
2023/03/16 16:36:56;;;;;;;2.47;1.73;;;;;;;;;;10372165;28;20056;-57
2023/03/16 16:41:56;;;;;;;2.17;1.30;;;;;;;;;;10371755;28;20033;-56
2023/03/16 16:46:58;;;;;;;1.30;1.20;;;;;;;;;;10371409;28;20414;-55
2023/03/16 16:51:59;;;;;;;2.10;1.48;;;;;;;;;;10371466;28;20045;-57
2023/03/16 16:57:00;;;;;;;1.42;1.30;;;;;;;;;;10370985;28;20120;-56
2023/03/16 17:02:11;;;;;;;1.88;1.48;;;;;;;;;;10369174;28;20401;-57
2023/03/16 17:07:12;;;;;;;1.40;1.27;;;;;;;;;;10370303;28;20061;-57
2023/03/16 17:12:20;;;;;;;1.58;1.35;;;;;;;;;;10370704;28;20029;-56
2023/03/16 17:17:21;;;;;;;2.50;1.42;;;;;;;;;;10369728;28;20079;-56
2023/03/16 17:22:27;;;;;;;5.18;1.40;;;;;;;;;;10370389;28;20566;-56
2023/03/16 17:27:30;;;;;;;1.30;1.20;;;;;;;;;;10370220;28;20041;-55
2023/03/16 17:32:30;;;;;;;3.20;1.50;;;;;;;;;;10368626;28;20032;-54
2023/03/16 17:37:31;;;;;;;2.70;1.92;;;;;;;;;;10369150;28;20501;-55
2023/03/16 17:42:32;;;;;;;2.55;1.63;;;;;;;;;;10369656;28;20038;-55
2023/03/16 17:47:37;;;;;;;2.65;1.20;;;;;;;;;;10368704;28;20520;-55
2023/03/16 17:52:37;;;;;;;2.47;1.40;;;;;;;;;;10368496;28;20366;-55
2023/03/16 17:57:38;;;;;;;1.73;1.17;;;;;;;;;;10369190;28;20026;-54
2023/03/16 18:02:48;;;;;;;1.67;1.30;;;;;;;;;;10368774;28;20045;-54
2023/03/16 18:07:50;;;;;;;2.08;1.35;;;;;;;;;;10367239;28;20465;-55
2023/03/16 18:13:05;;;;;;;1.88;1.20;;;;;;;;;;10367863;28;20447;-54
2023/03/16 18:18:06;;;;;;;2.28;1.23;;;;;;;;;;10366705;28;20045;-56
2023/03/16 18:23:19;;;;;;;2.60;1.70;;;;;;;;;;10366631;28;20025;-54
2023/03/16 18:28:21;;;;;;;3.10;1.30;;;;;;;;;;10367514;28;20385;-51
2023/03/16 18:33:25;;;;;;;1.33;1.23;;;;;;;;;;10366604;28;20048;-53
2023/03/16 18:38:35;;;;;;;2.45;1.45;;;;;;;;;;10365494;28;20057;-53
2023/03/16 18:43:36;;;;;;;7.13;1.50;;;;;;;;;;10367411;28;20037;-53
2023/03/16 18:48:36;;;;;;;3.95;1.50;;;;;;;;;;10368694;28;20046;-54
2023/03/16 18:53:37;;;;;;;3.03;1.50;;;;;;;;;;10375988;28;20245;-52
2023/03/16 18:58:38;;;;;;;4.30;1.90;;;;;;;;;;10374931;28;20458;-53
2023/03/16 19:03:42;;;;;;;3.13;1.60;;;;;;;;;;10375032;28;20034;-52
2023/03/16 19:08:43;;;;;;;4.95;1.70;;;;;;;;;;10375049;28;20032;-54
2023/03/16 19:13:44;;;;;;;4.78;1.77;;;;;;;;;;10374603;28;20052;-53
2023/03/16 19:18:45;;;;;;;2.55;1.77;;;;;;;;;;10374594;28;20030;-53
2023/03/16 19:24:01;;;;;;;2.90;1.60;;;;;;;;;;10374152;28;20109;-54
2023/03/16 19:29:02;;;;;;;6.47;1.63;;;;;;;;;;10373330;28;20037;-54
2023/03/16 19:34:03;;;;;;;2.50;1.75;;;;;;;;;;10372901;28;20026;-53
2023/03/16 19:39:04;;;;;;;9.32;1.98;;;;;;;;;;10374491;28;20034;-54
2023/03/16 19:44:22;;;;;;;1.88;1.52;;;;;;;;;;10373815;28;20052;-54
2023/03/16 19:49:25;;;;;;;6.32;1.60;;;;;;;;;;10372702;28;20022;-55
2023/03/16 19:54:32;;;;;;;2.40;1.50;;;;;;;;;;10373195;28;20033;-54
2023/03/16 19:59:34;;;;;;;2.08;1.50;;;;;;;;;;10372421;28;20041;-54
2023/03/16 20:04:34;;;;;;;5.03;1.63;;;;;;;;;;10371495;28;20026;-53
2023/03/16 20:09:35;;;;;;;1.98;1.80;;;;;;;;;;10373324;28;20037;-54
2023/03/16 20:14:35;;;;;;;2.33;2.00;;;;;;;;;;10373220;28;20030;-54
2023/03/16 20:19:36;;;;;;;1.63;1.52;;;;;;;;;;10372500;28;20041;-53
2023/03/16 20:24:37;;;;;;;4.13;2.08;;;;;;;;;;10372413;28;20041;-54
2023/03/16 20:29:38;;;;;;;2.60;1.50;;;;;;;;;;10372434;28;20506;-52
2023/03/16 20:34:38;;;;;;;3.58;1.70;;;;;;;;;;10372050;28;20117;-54
2023/03/16 20:39:39;;;;;;;1.70;1.60;;;;;;;;;;10371898;28;20037;-53
2023/03/16 20:44:40;;;;;;;2.08;1.77;;;;;;;;;;10371475;28;20084;-53
2023/03/16 20:49:41;;;;;;;1.60;1.50;;;;;;;;;;10372623;28;20182;-54
2023/03/16 20:54:41;;;;;;;2.03;1.48;;;;;;;;;;10371431;28;20037;-54
2023/03/16 20:59:46;;;;;;;3.13;1.67;;;;;;;;;;10371525;28;20056;-53
2023/03/16 21:04:47;;;;;;;2.03;1.65;;;;;;;;;;10370423;28;20493;-52
2023/03/16 21:09:48;;;;;;;1.67;1.58;;;;;;;;;;10371094;28;20032;-54
2023/03/16 21:14:49;;;;;;;2.08;1.90;;;;;;;;;;10369859;28;20107;-54
2023/03/16 21:19:51;;;;;;;2.22;2.03;;;;;;;;;;10370699;28;20059;-54
2023/03/16 21:24:52;;;;;;;19.50;2.22;;;;;;;;;;10370338;28;20029;-53
2023/03/16 21:29:55;;;;;;;8.35;2.60;;;;;;;;;;10369564;28;20378;-54
2023/03/16 21:34:56;;;;;;;7.07;2.42;;;;;;;;;;10369733;28;20062;-53
2023/03/16 21:39:57;;;;;;;8.50;2.50;;;;;;;;;;10368691;28;20034;-54
2023/03/16 21:44:57;;;;;;;7.90;2.55;;;;;;;;;;10368391;28;20045;-54
2023/03/16 21:49:58;;;;;;;6.90;2.40;;;;;;;;;;10368858;28;20029;-54
2023/03/16 21:54:59;;;;;;;6.05;3.00;;;;;;;;;;10366802;28;20022;-54
2023/03/16 22:00:00;;;;;;;9.82;2.95;;;;;;;;;;10368609;28;20030;-54
2023/03/16 22:05:00;;;;;;;9.98;2.85;;;;;;;;;;10367473;28;20029;-54
2023/03/16 22:10:01;;;;;;;3.45;2.38;;;;;;;;;;10366574;28;20091;-55
2023/03/16 22:15:02;;;;;;;8.82;2.92;;;;;;;;;;10368233;28;20042;-54
2023/03/16 22:20:14;;;;;;;6.25;2.92;;;;;;;;;;10368076;28;20091;-52
2023/03/16 22:25:20;;;;;;;5.38;3.17;;;;;;;;;;10365746;28;20022;-54
2023/03/16 22:30:26;;;;;;;5.80;3.70;;;;;;;;;;10367886;28;20386;-54
2023/03/16 22:35:35;;;;;;;7.00;3.13;;;;;;;;;;10367821;28;20030;-53
2023/03/16 22:40:38;;;;;;;8.15;3.38;;;;;;;;;;10365788;28;20393;-53
2023/03/16 22:45:39;;;;;;;8.35;3.22;;;;;;;;;;10366015;28;20269;-55
2023/03/16 22:50:40;;;;;;;6.13;3.28;;;;;;;;;;10368311;28;20061;-54
2023/03/16 22:55:41;;;;;;;12.30;4.30;;;;;;;;;;10367561;28;20261;-54
2023/03/16 23:00:41;;;;;;;8.18;3.58;;;;;;;;;;10349723;28;20124;-55
2023/03/16 23:05:42;;;;;;;9.23;3.50;;;;;;;;;;10366590;28;20084;-59
2023/03/16 23:10:43;;;;;;;9.20;3.85;;;;;;;;;;10367485;28;20036;-59
2023/03/16 23:15:47;;;;;;;6.65;3.65;;;;;;;;;;10366104;28;20037;-59
2023/03/16 23:20:50;;;;;;;8.70;3.50;;;;;;;;;;10365257;28;20121;-59
2023/03/16 23:25:50;;;;;;;6.68;3.70;;;;;;;;;;10366388;28;20124;-59
2023/03/16 23:30:51;;;;;;;7.63;3.55;;;;;;;;;;10365924;28;20473;-59
2023/03/16 23:35:51;;;;;;;10.57;3.65;;;;;;;;;;10366512;28;20026;-58
2023/03/16 23:40:52;;;;;;;6.28;3.33;;;;;;;;;;10372924;28;20034;-59
2023/03/16 23:45:53;;;;;;;10.15;3.28;;;;;;;;;;10373142;28;20065;-59
2023/03/16 23:50:54;;;;;;;3.95;3.00;;;;;;;;;;10371699;28;20045;-59
2023/03/16 23:55:55;;;;;;;4.35;3.30;;;;;;;;;;10372628;28;20056;-58
